Terminal Aerodrome Forecast
Issued by NWS Jacksonville, FL

Home | Current Version | Previous Version | Text Only | Print | Product List | Glossary On
Versions: 1 2 3 4 5 6 7 8 9 10 11 12 13 14 15 16 17 18 19 20 21 22 23
287
FTUS42 KJAX 261955 AAA
TAFJAX
TAF AMD
KJAX 261955Z 2620/2718 VRB06KT P6SM VCTS BKN040CB BKN250
      TEMPO 2620/2622 VRB18G28KT 1SM +TSRA BR OVC025CB
     FM270100 05003KT P6SM VCSH SCT100 BKN250
     FM271600 06005KT P6SM VCTS BKN035CB=

USA.gov is the U.S. government's official web portal to all federal, state and local government web resources and services.